Time;durP1;ratioP1;P1;durP2;ratioP2;P2;SDS_P1;SDS_P2;PMS_P1;PMS_P2;Temp;Humidity;BMP_temperature;BMP_pressure;BME280_temperature;BME280_humidity;BME280_pressure;Samples;Min_cycle;Max_cycle;Signal;HPM_P1;HPM_P2
2022/03/01 00:02:04;;;;;;;11.05;5.60;;;;;;;3.87;45.74;101339.63;4456189;32;33619;-75
2022/03/01 00:04:32;;;;;;;10.73;4.93;;;;;;;3.84;45.44;101348.03;4456109;32;34144;-74
2022/03/01 00:07:00;;;;;;;9.25;4.90;;;;;;;3.87;45.37;101346.91;4443199;32;34130;-74
2022/03/01 00:09:27;;;;;;;7.75;5.05;;;;;;;3.91;45.36;101349.22;4443499;32;34073;-74
2022/03/01 00:11:59;;;;;;;8.07;4.47;;;;;;;4.06;45.23;101344.38;4443842;32;32607;-75
2022/03/01 00:14:30;;;;;;;8.45;5.12;;;;;;;3.63;45.85;101331.63;4456291;32;34459;-75
2022/03/01 00:16:58;;;;;;;7.95;4.40;;;;;;;3.72;45.67;101330.03;4443568;32;34878;-74
2022/03/01 00:19:28;;;;;;;8.57;4.30;;;;;;;3.74;45.99;101340.75;4455515;32;33217;-75
2022/03/01 00:21:57;;;;;;;8.63;4.37;;;;;;;3.45;46.13;101340.38;4456151;32;34563;-74
2022/03/01 00:24:25;;;;;;;8.93;4.53;;;;;;;4.05;45.24;101337.22;4455847;32;34213;-75
2022/03/01 00:26:52;;;;;;;7.53;4.10;;;;;;;3.43;46.12;101334.22;4443181;32;34097;-75
2022/03/01 00:29:20;;;;;;;8.48;4.15;;;;;;;3.31;46.34;101333.34;4469910;32;33512;-74
2022/03/01 00:31:48;;;;;;;9.18;4.43;;;;;;;3.00;47.02;101324.06;4469590;32;33591;-74
2022/03/01 00:34:15;;;;;;;8.98;4.12;;;;;;;3.59;46.21;101332.88;4469320;32;34303;-74
2022/03/01 00:36:43;;;;;;;8.98;4.30;;;;;;;3.51;46.18;101331.75;4469705;32;33649;-74
2022/03/01 00:39:11;;;;;;;7.97;4.30;;;;;;;3.05;47.21;101330.00;4469624;32;33469;-74
2022/03/01 00:41:39;;;;;;;9.77;4.55;;;;;;;3.34;46.68;101332.22;4469377;32;34528;-74
2022/03/01 00:44:07;;;;;;;8.38;4.45;;;;;;;3.63;45.86;101331.63;4469527;32;35146;-74
2022/03/01 00:46:34;;;;;;;8.63;4.35;;;;;;;3.60;45.83;101323.72;4442830;32;34566;-74
2022/03/01 00:49:03;;;;;;;10.25;4.65;;;;;;;3.36;45.97;101332.97;4442781;32;34119;-74
2022/03/01 00:51:30;;;;;;;9.90;4.30;;;;;;;3.53;45.95;101329.78;4442558;32;32354;-74
2022/03/01 00:53:58;;;;;;;10.32;4.65;;;;;;;3.47;46.05;101331.13;4442549;32;33362;-74
2022/03/01 00:56:25;;;;;;;8.20;4.25;;;;;;;3.47;46.23;101328.41;4442367;32;33620;-75
2022/03/01 00:58:53;;;;;;;132.73;56.00;;;;;;;3.50;45.96;101321.87;4469371;32;33193;-75
2022/03/01 01:01:21;;;;;;;58.00;28.62;;;;;;;3.59;45.68;101324.72;4455214;32;33944;-74
2022/03/01 01:03:48;;;;;;;55.60;32.75;;;;;;;3.66;45.31;101311.50;4442438;32;33054;-74
2022/03/01 01:06:19;;;;;;;31.75;21.15;;;;;;;3.71;45.34;101319.28;4469262;32;33835;-74
2022/03/01 01:08:47;;;;;;;15.57;11.50;;;;;;;3.39;46.05;101328.16;4442858;32;34172;-74
2022/03/01 01:11:14;;;;;;;10.85;6.07;;;;;;;3.65;45.53;101317.94;4442240;32;32374;-74
2022/03/01 01:13:42;;;;;;;9.00;5.35;;;;;;;3.77;45.24;101324.22;4442705;32;34289;-74
2022/03/01 01:16:11;;;;;;;8.48;5.00;;;;;;;3.76;45.29;101322.50;4469074;32;34093;-75
2022/03/01 01:18:43;;;;;;;8.02;4.37;;;;;;;3.79;44.99;101314.97;4455167;32;33275;-74
2022/03/01 01:21:11;;;;;;;8.75;4.37;;;;;;;3.60;45.51;101312.00;4442534;32;32149;-75
2022/03/01 01:23:41;;;;;;;9.25;4.43;;;;;;;3.46;45.77;101313.12;4442197;32;32841;-74
2022/03/01 01:26:09;;;;;;;9.63;4.60;;;;;;;3.64;45.50;101322.50;4455354;32;34630;-75
2022/03/01 01:28:37;;;;;;;9.05;4.53;;;;;;;3.79;44.97;101325.81;4468887;32;33182;-74
2022/03/01 01:31:04;;;;;;;9.40;4.32;;;;;;;3.84;44.88;101322.72;4455073;32;34200;-74
2022/03/01 01:33:32;;;;;;;7.28;4.15;;;;;;;2.87;46.65;101324.16;4444702;32;34291;-74
2022/03/01 01:36:00;;;;;;;7.55;4.40;;;;;;;3.49;45.57;101312.00;4471246;32;33602;-74
2022/03/01 01:38:27;;;;;;;8.25;3.90;;;;;;;3.57;45.32;101313.12;4471182;32;33571;-74
2022/03/01 01:40:55;;;;;;;8.57;4.12;;;;;;;3.45;45.45;101321.37;4444346;32;33558;-74
2022/03/01 01:43:22;;;;;;;7.12;3.92;;;;;;;3.47;45.08;101328.41;4470901;32;35131;-74
2022/03/01 01:45:52;;;;;;;7.60;4.00;;;;;;;3.33;45.59;101323.22;4457048;32;34602;-74
2022/03/01 01:48:21;;;;;;;7.28;4.10;;;;;;;3.27;45.66;101330.00;4470996;32;33984;-75
2022/03/01 01:50:48;;;;;;;8.90;4.00;;;;;;;3.43;45.33;101323.34;4456987;32;33892;-74
2022/03/01 01:53:17;;;;;;;7.75;3.40;;;;;;;3.43;45.44;101312.50;4431423;32;32908;-74
2022/03/01 01:55:45;;;;;;;10.77;3.87;;;;;;;3.43;45.29;101318.78;4457132;32;33874;-74
2022/03/01 01:58:12;;;;;;;7.43;3.87;;;;;;;3.46;44.88;101310.41;4443949;32;32405;-74
2022/03/01 02:00:40;;;;;;;14.43;9.05;;;;;;;3.71;44.59;101314.72;4456873;32;34044;-74
2022/03/01 02:03:08;;;;;;;16.48;9.40;;;;;;;3.34;45.46;101316.81;4444086;32;33059;-74
2022/03/01 02:05:36;;;;;;;59.80;33.33;;;;;;;3.58;44.81;101312.13;4456938;32;33908;-74
2022/03/01 02:08:03;;;;;;;105.00;53.95;;;;;;;3.88;44.29;101305.19;4456859;32;33498;-75
2022/03/01 02:10:31;;;;;;;39.67;21.60;;;;;;;3.74;44.34;101309.03;4444403;32;34021;-75
2022/03/01 02:12:59;;;;;;;61.03;31.05;;;;;;;4.02;43.89;101304.87;4431328;32;32894;-74
2022/03/01 02:15:30;;;;;;;42.62;18.48;;;;;;;3.91;43.86;101308.47;4457171;32;34718;-74
2022/03/01 02:17:58;;;;;;;209.25;81.60;;;;;;;4.23;43.19;101291.37;4444068;32;33270;-75
2022/03/01 02:20:26;;;;;;;73.62;41.08;;;;;;;4.35;42.71;101301.22;4443520;32;32130;-74
2022/03/01 02:22:55;;;;;;;25.02;15.95;;;;;;;3.78;43.48;101296.06;4469672;32;33786;-75
2022/03/01 02:25:26;;;;;;;49.65;32.25;;;;;;;4.13;43.27;101304.84;4456768;32;33972;-75
2022/03/01 02:27:54;;;;;;;27.83;19.30;;;;;;;4.01;43.37;101295.00;4456732;32;33705;-74
2022/03/01 02:30:22;;;;;;;12.48;7.93;;;;;;;3.97;43.31;101301.69;4456668;32;34507;-74
2022/03/01 02:32:54;;;;;;;11.07;7.25;;;;;;;3.44;44.22;101301.53;4456729;32;35075;-74
2022/03/01 02:35:24;;;;;;;8.68;5.40;;;;;;;3.85;43.79;101298.16;4456988;32;34492;-74
2022/03/01 02:37:52;;;;;;;8.40;4.57;;;;;;;3.41;44.39;101301.78;4443854;32;31829;-74
2022/03/01 02:40:20;;;;;;;6.72;3.75;;;;;;;3.84;43.80;101291.00;4456631;32;33359;-75
2022/03/01 02:42:48;;;;;;;7.80;4.25;;;;;;;3.86;43.52;101296.31;4443476;32;33732;-74
2022/03/01 02:45:17;;;;;;;6.80;3.80;;;;;;;3.72;43.66;101300.16;4443739;32;32399;-74
2022/03/01 02:47:45;;;;;;;7.22;4.03;;;;;;;3.92;43.53;101293.91;4470866;32;33541;-74
2022/03/01 02:50:13;;;;;;;15.73;9.90;;;;;;;3.61;43.75;101300.16;4443747;32;32267;-74
2022/03/01 02:52:41;;;;;;;36.53;23.58;;;;;;;3.58;43.66;101294.97;4443625;32;32980;-74
2022/03/01 02:55:09;;;;;;;414.08;219.02;;;;;;;3.47;43.90;101293.12;4456443;32;34628;-74
2022/03/01 02:57:41;;;;;;;87.35;56.58;;;;;;;3.42;44.25;101289.94;4456992;32;33546;-74
2022/03/01 03:00:11;;;;;;;21.08;16.20;;;;;;;3.62;43.65;101291.91;4456540;32;33763;-74
2022/03/01 03:02:42;;;;;;;9.63;5.12;;;;;;;3.51;43.77;101291.91;4443687;32;34077;-74
2022/03/01 03:05:10;;;;;;;8.70;3.78;;;;;;;3.91;42.80;101291.31;4431089;32;32370;-74
2022/03/01 03:07:41;;;;;;;7.57;3.80;;;;;;;3.91;42.95;101288.63;4457149;32;33218;-75
2022/03/01 03:10:09;;;;;;;6.87;3.75;;;;;;;3.94;42.53;101283.78;4456597;32;34371;-74
2022/03/01 03:12:37;;;;;;;7.72;3.50;;;;;;;4.05;42.81;101298.34;4470788;32;34320;-74
2022/03/01 03:15:06;;;;;;;9.18;4.10;;;;;;;3.89;42.97;101296.06;4443958;32;34667;-74
2022/03/01 03:17:34;;;;;;;8.85;4.37;;;;;;;3.93;42.65;101294.78;4456795;32;33591;-75
2022/03/01 03:20:03;;;;;;;7.47;3.37;;;;;;;4.08;42.61;101287.22;4456373;32;33799;-74
2022/03/01 03:22:33;;;;;;;6.68;3.22;;;;;;;4.22;42.74;101286.94;4456394;32;34373;-75
2022/03/01 03:25:01;;;;;;;6.20;3.15;;;;;;;4.24;42.80;101288.53;4470346;32;34713;-74
2022/03/01 03:27:31;;;;;;;8.07;3.33;;;;;;;4.31;42.73;101294.31;4456382;32;34331;-74
2022/03/01 03:29:58;;;;;;;6.60;3.17;;;;;;;3.80;43.06;101297.69;4456628;32;34811;-74
2022/03/01 03:32:26;;;;;;;6.37;3.15;;;;;;;3.93;43.26;101292.06;4456569;32;34523;-74
2022/03/01 03:34:53;;;;;;;6.72;3.42;;;;;;;3.90;43.51;101297.78;4456140;32;33960;-75
2022/03/01 03:37:23;;;;;;;6.57;3.42;;;;;;;3.88;43.16;101297.03;4443410;32;31713;-74
2022/03/01 03:39:51;;;;;;;9.57;3.45;;;;;;;3.91;43.64;101303.06;4443340;32;34785;-75
2022/03/01 03:42:19;;;;;;;7.70;3.05;;;;;;;3.84;43.59;101301.00;4455766;32;34427;-75
2022/03/01 03:44:46;;;;;;;7.40;3.60;;;;;;;3.77;43.92;101300.63;4430463;32;34518;-74
2022/03/01 03:47:14;;;;;;;5.35;2.90;;;;;;;3.68;44.11;101301.37;4456111;32;33432;-74
2022/03/01 03:49:42;;;;;;;7.05;3.40;;;;;;;3.73;44.06;101301.87;4443396;32;33831;-75
2022/03/01 03:52:10;;;;;;;8.70;3.05;;;;;;;3.75;43.90;101297.19;4443488;32;32943;-75
2022/03/01 03:54:37;;;;;;;7.20;3.05;;;;;;;3.74;44.04;101297.31;4429901;32;32712;-75
2022/03/01 03:57:08;;;;;;;6.97;2.85;;;;;;;3.52;44.48;101295.47;4455893;32;33994;-75
2022/03/01 03:59:36;;;;;;;6.62;2.80;;;;;;;3.58;44.30;101295.84;4456814;32;33784;-74
2022/03/01 04:02:05;;;;;;;5.75;2.72;;;;;;;3.42;44.48;101300.78;4455900;32;34425;-74
2022/03/01 04:04:34;;;;;;;5.85;2.85;;;;;;;3.39;44.47;101297.44;4456148;32;33922;-74
2022/03/01 04:07:02;;;;;;;7.50;2.97;;;;;;;3.55;44.23;101301.53;4455991;32;33663;-74
2022/03/01 04:09:30;;;;;;;7.18;3.20;;;;;;;3.28;44.82;101295.59;4455887;32;33583;-74
2022/03/01 04:12:00;;;;;;;9.18;3.05;;;;;;;3.49;44.52;101306.59;4443300;32;32520;-74
2022/03/01 04:14:30;;;;;;;10.30;3.40;;;;;;;3.36;44.78;101295.84;4456065;32;34177;-74
2022/03/01 04:16:57;;;;;;;6.07;3.33;;;;;;;3.22;45.14;101299.69;4469778;32;34196;-74
2022/03/01 04:19:25;;;;;;;6.70;3.47;;;;;;;3.20;45.70;101303.50;4430481;32;32748;-74
2022/03/01 04:21:53;;;;;;;6.00;2.70;;;;;;;3.25;45.22;101299.41;4469853;32;35212;-74
2022/03/01 04:24:22;;;;;;;8.15;3.55;;;;;;;3.23;45.37;101303.28;4470073;32;33961;-75
2022/03/01 04:26:50;;;;;;;7.50;3.10;;;;;;;3.20;45.34;101301.66;4443266;32;31913;-74
2022/03/01 04:29:20;;;;;;;7.85;3.90;;;;;;;3.10;46.11;101310.66;4455729;32;33688;-74
2022/03/01 04:31:47;;;;;;;8.40;2.87;;;;;;;3.05;45.86;101302.00;4455587;32;34637;-74
2022/03/01 04:34:15;;;;;;;8.55;3.37;;;;;;;3.03;45.82;101287.72;4442905;32;31978;-74
2022/03/01 04:36:44;;;;;;;6.97;3.33;;;;;;;2.98;46.33;101297.06;4430382;32;33105;-74
2022/03/01 04:39:11;;;;;;;7.25;2.90;;;;;;;2.82;46.73;101307.38;4442753;32;32228;-73
2022/03/01 04:41:39;;;;;;;12.65;7.90;;;;;;;2.94;46.48;101298.28;4455539;32;34469;-74
2022/03/01 04:44:08;;;;;;;10.32;5.40;;;;;;;2.82;46.78;101299.25;4443493;32;34119;-73
2022/03/01 04:46:36;;;;;;;8.52;4.97;;;;;;;2.75;46.77;101295.28;4455824;32;34061;-75
2022/03/01 04:49:04;;;;;;;15.13;4.75;;;;;;;2.80;47.93;101303.06;4442909;32;33682;-74
2022/03/01 04:51:32;;;;;;;8.75;3.55;;;;;;;3.25;64.91;101306.72;4455454;32;34547;-74
2022/03/01 04:54:02;;;;;;;7.97;3.92;;;;;;;3.35;55.12;101304.97;4442432;32;33485;-74
2022/03/01 04:56:30;;;;;;;8.27;3.85;;;;;;;3.44;49.68;101304.25;4455337;32;33483;-74
2022/03/01 04:58:57;;;;;;;6.15;3.05;;;;;;;3.33;47.35;101300.66;4442497;32;33968;-74
2022/03/01 05:01:25;;;;;;;16.10;8.48;;;;;;;3.18;46.31;101300.94;4442656;32;34441;-74
2022/03/01 05:03:53;;;;;;;10.18;4.40;;;;;;;3.05;46.37;101302.00;4429814;32;32384;-74
2022/03/01 05:06:23;;;;;;;10.43;5.30;;;;;;;2.91;46.74;101298.53;4455551;32;33303;-75
2022/03/01 05:09:03;;;;;;;9.73;4.87;;;;;;;3.10;46.41;101299.81;4444380;32;32504;-74
2022/03/01 05:11:33;;;;;;;7.53;4.03;;;;;;;3.03;46.72;101304.00;4470747;32;35238;-74
2022/03/01 05:14:00;;;;;;;6.20;3.12;;;;;;;2.83;46.94;101295.56;4430987;32;32666;-74
2022/03/01 05:16:28;;;;;;;10.38;3.78;;;;;;;2.86;46.89;101286.31;4457276;32;33116;-74
2022/03/01 05:18:56;;;;;;;28.33;16.37;;;;;;;2.91;46.66;101284.97;4444916;32;33781;-74
2022/03/01 05:21:24;;;;;;;17.52;9.90;;;;;;;2.84;47.06;101289.16;4445014;32;34636;-74
2022/03/01 05:23:51;;;;;;;15.88;8.73;;;;;;;2.70;47.26;101285.78;4445622;32;33886;-75
2022/03/01 05:26:21;;;;;;;12.15;7.07;;;;;;;2.91;47.10;101295.81;4458641;32;33546;-75
2022/03/01 05:28:49;;;;;;;10.68;6.10;;;;;;;2.81;47.44;101292.09;4445378;32;34155;-75
2022/03/01 05:31:18;;;;;;;15.48;9.73;;;;;;;2.75;47.66;101295.28;4459402;32;34700;-75
2022/03/01 05:33:48;;;;;;;9.48;4.60;;;;;;;2.80;47.39;101294.94;4459019;32;33996;-75
2022/03/01 05:36:16;;;;;;;16.02;9.07;;;;;;;2.76;47.55;101302.44;4443400;32;31767;-75
2022/03/01 05:38:46;;;;;;;39.90;16.80;;;;;;;2.53;48.24;101300.69;4470749;32;33978;-74
2022/03/01 05:41:15;;;;;;;13.40;7.03;;;;;;;2.60;48.37;101301.94;4445876;32;34328;-75
2022/03/01 05:43:42;;;;;;;14.00;5.93;;;;;;;2.57;48.74;101302.16;4440875;32;33965;-75
2022/03/01 05:46:10;;;;;;;9.30;5.57;;;;;;;2.59;48.57;101295.66;4466654;32;34223;-75
2022/03/01 05:48:38;;;;;;;16.12;7.35;;;;;;;2.68;48.11;101295.88;4446566;32;34534;-75
2022/03/01 05:51:08;;;;;;;10.90;4.57;;;;;;;2.52;49.09;101296.25;4453778;32;34599;-75
2022/03/01 05:53:35;;;;;;;10.43;5.22;;;;;;;2.24;48.95;101287.50;4444039;32;33792;-76
2022/03/01 05:56:03;;;;;;;10.13;3.70;;;;;;;2.52;48.54;101299.81;4444009;32;34122;-75
2022/03/01 05:58:31;;;;;;;12.65;4.72;;;;;;;2.72;48.11;101303.66;4470626;32;33622;-74
2022/03/01 06:01:01;;;;;;;11.75;5.37;;;;;;;2.59;48.28;101313.75;4457020;32;35224;-75
2022/03/01 06:03:29;;;;;;;7.95;4.40;;;;;;;2.57;48.39;101302.16;4456179;32;34202;-75
2022/03/01 06:05:59;;;;;;;6.62;3.67;;;;;;;2.76;48.02;101307.87;4470488;32;33967;-75
2022/03/01 06:08:27;;;;;;;9.18;3.45;;;;;;;2.79;47.60;101307.63;4456508;32;34357;-75
2022/03/01 06:10:55;;;;;;;12.48;5.70;;;;;;;2.80;47.48;101311.19;4456771;32;34477;-75
2022/03/01 06:13:24;;;;;;;13.00;3.58;;;;;;;2.91;47.56;101308.53;4454524;32;32580;-74
2022/03/01 06:15:52;;;;;;;7.57;3.85;;;;;;;2.95;47.28;101302.75;4454166;32;31760;-75
2022/03/01 06:18:21;;;;;;;7.22;3.47;;;;;;;3.18;46.89;101316.34;4454852;32;33656;-75
2022/03/01 06:20:48;;;;;;;32.13;13.13;;;;;;;3.16;47.13;101321.03;4455732;32;33988;-74
2022/03/01 06:23:16;;;;;;;25.88;8.70;;;;;;;3.23;47.42;101316.84;4443095;32;33926;-74
2022/03/01 06:25:44;;;;;;;19.92;8.25;;;;;;;3.09;48.06;101311.63;4443133;32;31896;-74
2022/03/01 06:28:12;;;;;;;17.08;6.43;;;;;;;3.16;47.99;101318.31;4456355;32;33402;-74
2022/03/01 06:30:41;;;;;;;10.57;3.92;;;;;;;3.20;47.36;101307.09;4456803;32;34476;-74
2022/03/01 06:33:12;;;;;;;10.52;3.78;;;;;;;3.40;46.41;101302.75;4456975;32;34602;-74
2022/03/01 06:35:39;;;;;;;7.70;3.10;;;;;;;3.61;45.91;101300.16;4470747;32;34338;-74
2022/03/01 06:38:07;;;;;;;9.65;3.92;;;;;;;3.82;46.45;101311.13;4470619;32;34420;-74
2022/03/01 06:40:35;;;;;;;10.18;3.85;;;;;;;3.86;47.16;101309.88;4456694;32;34906;-74
2022/03/01 06:43:06;;;;;;;11.15;3.87;;;;;;;3.85;47.42;101306.31;4443894;32;33715;-74
2022/03/01 06:45:37;;;;;;;147.93;67.32;;;;;;;4.09;45.29;101300.66;4457383;32;33249;-74
2022/03/01 06:48:05;;;;;;;183.18;89.28;;;;;;;4.16;44.76;101301.87;4456734;32;32430;-75
2022/03/01 06:50:34;;;;;;;128.70;62.90;;;;;;;4.51;44.82;101306.22;4456576;32;34802;-75
2022/03/01 06:53:04;;;;;;;50.08;26.67;;;;;;;4.63;44.36;101307.84;4457166;32;34078;-75
2022/03/01 06:55:32;;;;;;;13.32;6.60;;;;;;;4.72;43.16;101300.78;4430774;32;35294;-73
2022/03/01 06:58:00;;;;;;;8.95;4.30;;;;;;;4.75;41.15;101295.94;4456755;32;33624;-75
2022/03/01 07:00:30;;;;;;;9.05;4.30;;;;;;;4.90;40.91;101297.31;4456571;32;34548;-75
2022/03/01 07:02:57;;;;;;;14.35;7.95;;;;;;;5.08;40.17;101294.87;4456779;32;34179;-75
2022/03/01 07:05:27;;;;;;;7.68;4.18;;;;;;;5.26;40.65;101292.34;4443764;32;34133;-75
2022/03/01 07:07:55;;;;;;;7.82;3.47;;;;;;;5.54;40.78;101291.63;4443602;32;32394;-75
2022/03/01 07:10:24;;;;;;;8.23;3.62;;;;;;;5.82;40.55;101290.00;4470503;32;34398;-75
2022/03/01 07:12:51;;;;;;;9.38;3.20;;;;;;;6.21;39.03;101277.34;4470319;32;35147;-75
2022/03/01 07:15:21;;;;;;;8.93;3.67;;;;;;;6.39;38.19;101282.09;4470419;32;33532;-75
2022/03/01 07:17:49;;;;;;;9.32;4.03;;;;;;;6.55;37.81;101275.03;4470497;32;33564;-75
2022/03/01 07:20:16;;;;;;;7.22;3.15;;;;;;;7.00;36.77;101277.13;4443455;32;32714;-75
2022/03/01 07:22:44;;;;;;;9.02;3.33;;;;;;;7.52;35.31;101272.06;4456178;32;32486;-75
2022/03/01 07:25:14;;;;;;;6.00;2.60;;;;;;;7.71;34.99;101271.09;4456694;32;33620;-75
2022/03/01 07:27:50;;;;;;;6.87;2.70;;;;;;;7.89;34.66;101269.25;4456724;32;33921;-75
2022/03/01 07:30:19;;;;;;;9.30;4.10;;;;;;;7.69;33.84;101268.53;4442675;32;35238;-75
2022/03/01 07:32:48;;;;;;;7.15;3.00;;;;;;;8.18;34.23;101261.72;4443367;32;32477;-75
2022/03/01 07:35:18;;;;;;;7.40;3.40;;;;;;;8.20;33.63;101262.44;4443738;32;31806;-75
2022/03/01 07:37:47;;;;;;;5.12;2.30;;;;;;;8.02;33.19;101263.41;4456488;32;34636;-75
2022/03/01 07:40:18;;;;;;;6.55;2.67;;;;;;;8.77;32.31;101254.75;4456329;32;34290;-75
2022/03/01 07:42:53;;;;;;;5.95;2.37;;;;;;;9.02;32.05;101260.44;4443651;32;33183;-75
2022/03/01 07:45:21;;;;;;;6.93;2.40;;;;;;;8.42;31.76;101258.41;4456000;32;32849;-75
2022/03/01 07:47:51;;;;;;;5.37;2.62;;;;;;;8.28;32.29;101253.44;4443510;32;33013;-75
2022/03/01 07:50:20;;;;;;;6.18;3.08;;;;;;;8.01;32.47;101268.03;4456558;32;35365;-75
2022/03/01 07:52:53;;;;;;;5.12;3.05;;;;;;;7.77;32.29;101260.44;4470216;32;34051;-75
2022/03/01 07:55:23;;;;;;;7.70;2.50;;;;;;;7.99;32.26;101261.84;4456150;32;34140;-75
2022/03/01 07:57:52;;;;;;;5.05;2.33;;;;;;;7.58;32.68;101261.38;4456263;32;33472;-75
2022/03/01 08:00:19;;;;;;;5.85;2.60;;;;;;;8.80;31.43;101257.19;4443238;32;34135;-75
2022/03/01 08:02:47;;;;;;;5.75;2.80;;;;;;;8.78;31.27;101264.69;4456381;32;33803;-75
2022/03/01 08:05:15;;;;;;;8.05;4.05;;;;;;;8.76;31.55;101264.00;4443234;32;31703;-75
2022/03/01 08:07:49;;;;;;;18.45;11.02;;;;;;;8.84;30.94;101252.25;4443895;32;32193;-75
2022/03/01 08:10:18;;;;;;;7.20;2.75;;;;;;;8.80;31.78;101253.59;4456097;32;35254;-75
2022/03/01 08:12:45;;;;;;;6.62;2.00;;;;;;;8.73;30.39;101253.34;4443081;32;33279;-75
2022/03/01 08:15:13;;;;;;;5.55;2.12;;;;;;;9.14;29.83;101259.09;4456009;32;33724;-75
2022/03/01 08:17:51;;;;;;;5.78;2.55;;;;;;;9.62;29.78;101250.31;4470023;32;33651;-75
2022/03/01 08:20:25;;;;;;;5.50;2.37;;;;;;;9.88;30.21;101261.19;4443286;32;34389;-75
2022/03/01 08:22:57;;;;;;;6.50;2.53;;;;;;;9.58;29.15;101259.88;4455732;32;34254;-75
2022/03/01 08:25:28;;;;;;;5.18;2.00;;;;;;;9.63;29.03;101259.38;4443298;32;32471;-75
2022/03/01 08:27:58;;;;;;;5.53;2.00;;;;;;;9.70;28.86;101252.22;4443139;32;33329;-75
2022/03/01 08:30:26;;;;;;;6.75;2.80;;;;;;;10.15;28.27;101249.94;4455842;32;35234;-75
2022/03/01 08:32:54;;;;;;;7.47;2.62;;;;;;;10.34;29.15;101243.34;4455656;32;33334;-75
2022/03/01 08:35:22;;;;;;;5.35;2.40;;;;;;;9.67;28.80;101255.28;4442858;32;31726;-75
2022/03/01 08:37:51;;;;;;;12.23;6.80;;;;;;;9.99;28.81;101260.87;4469713;32;33694;-75
2022/03/01 08:40:21;;;;;;;11.70;10.00;;;;;;;9.63;28.38;101256.66;4455205;32;34438;-75
2022/03/01 08:42:49;;;;;;;4.35;2.03;;;;;;;9.88;27.63;101256.56;4455975;32;34829;-75
2022/03/01 08:45:16;;;;;;;5.35;2.47;;;;;;;10.20;27.88;101241.25;4442792;32;33063;-75
2022/03/01 08:47:46;;;;;;;5.12;2.40;;;;;;;9.56;28.27;101242.75;4443081;32;34505;-75
2022/03/01 08:50:14;;;;;;;6.68;2.70;;;;;;;9.71;27.73;101242.97;4456178;32;34447;-75
2022/03/01 08:53:03;;;;;;;6.15;2.72;;;;;;;9.68;28.21;101238.69;4455382;32;33285;-75
2022/03/01 08:55:31;;;;;;;4.75;2.10;;;;;;;9.80;28.31;101242.81;4442482;32;31841;-75
2022/03/01 08:58:01;;;;;;;7.03;2.00;;;;;;;9.88;27.49;101234.63;4469436;32;33796;-75
2022/03/01 09:00:29;;;;;;;6.30;2.42;;;;;;;10.53;27.14;101240.25;4429878;32;33003;-75
2022/03/01 09:02:57;;;;;;;4.28;2.00;;;;;;;10.95;26.54;101227.38;4469345;32;33879;-75
2022/03/01 09:05:26;;;;;;;3.97;1.80;;;;;;;10.38;26.46;101232.88;4455336;32;34132;-75
2022/03/01 09:07:55;;;;;;;5.18;1.90;;;;;;;10.81;26.14;101226.16;4442380;32;32208;-75
2022/03/01 09:10:26;;;;;;;7.90;2.22;;;;;;;10.64;26.18;101233.56;4455488;32;34588;-75
2022/03/01 09:12:54;;;;;;;6.15;2.08;;;;;;;9.89;26.10;101222.63;4469270;32;33408;-75
2022/03/01 09:15:23;;;;;;;6.10;2.12;;;;;;;10.13;26.45;101224.56;4442294;32;31756;-75
2022/03/01 09:17:51;;;;;;;5.20;2.58;;;;;;;10.28;26.09;101218.47;4455265;32;34208;-75
2022/03/01 09:20:18;;;;;;;4.75;1.87;;;;;;;10.83;26.08;101224.97;4442357;32;35154;-75
2022/03/01 09:22:46;;;;;;;4.72;1.80;;;;;;;10.52;25.77;101221.19;4455204;32;34011;-75
2022/03/01 09:25:14;;;;;;;2.92;1.80;;;;;;;9.74;26.07;101204.25;4454960;32;33199;-75
2022/03/01 09:27:41;;;;;;;4.40;2.08;;;;;;;9.66;26.64;101217.94;4442062;32;32410;-75
2022/03/01 09:30:09;;;;;;;7.80;2.47;;;;;;;9.36;27.40;101216.59;4469021;32;34473;-75
2022/03/01 09:32:40;;;;;;;8.55;4.00;;;;;;;10.14;26.49;101209.84;4455340;32;34003;-75
2022/03/01 09:35:09;;;;;;;4.55;1.75;;;;;;;11.06;26.00;101210.50;4454789;32;31441;-75
2022/03/01 09:37:37;;;;;;;10.15;6.80;;;;;;;10.91;25.12;101195.78;4454924;32;33743;-75
2022/03/01 09:40:06;;;;;;;14.02;8.25;;;;;;;10.08;26.10;101196.78;4454914;32;35100;-73
2022/03/01 09:42:34;;;;;;;18.52;13.00;;;;;;;10.37;25.36;101179.03;4429233;32;32504;-72
2022/03/01 09:45:02;;;;;;;46.17;30.48;;;;;;;11.09;24.60;101191.75;4441869;32;31920;-73
2022/03/01 09:47:30;;;;;;;20.73;12.37;;;;;;;11.29;24.98;101191.38;4441783;32;32240;-73
2022/03/01 09:49:59;;;;;;;11.43;6.25;;;;;;;11.72;23.58;101179.81;4454764;32;34442;-72
2022/03/01 09:52:26;;;;;;;12.45;6.87;;;;;;;12.20;24.31;101181.44;4442065;32;33472;-73
2022/03/01 09:54:54;;;;;;;9.70;4.65;;;;;;;12.75;23.40;101160.13;4444338;32;34218;-72
2022/03/01 09:57:21;;;;;;;7.22;3.90;;;;;;;12.39;22.80;101169.06;4456896;32;33934;-73
2022/03/01 09:59:49;;;;;;;6.18;3.17;;;;;;;12.46;22.61;101158.16;4470985;32;34429;-75
2022/03/01 10:02:18;;;;;;;5.28;2.47;;;;;;;11.84;22.30;101159.16;4457316;32;33965;-75
2022/03/01 10:04:55;;;;;;;5.30;2.20;;;;;;;12.93;21.68;101146.00;4444450;32;31793;-73
2022/03/01 10:07:26;;;;;;;9.30;2.60;;;;;;;12.98;22.00;101143.56;4456936;32;34788;-72
2022/03/01 10:09:59;;;;;;;3.90;1.60;;;;;;;12.91;22.27;101142.59;4456935;32;34339;-72
2022/03/01 10:12:28;;;;;;;5.55;2.40;;;;;;;12.73;21.77;101143.81;4456839;32;34350;-72
2022/03/01 10:15:04;;;;;;;3.67;1.80;;;;;;;12.69;22.53;101147.97;4456866;32;34595;-75
2022/03/01 10:17:35;;;;;;;4.93;1.93;;;;;;;13.28;21.67;101147.16;4444043;32;32326;-76
2022/03/01 10:20:09;;;;;;;4.30;1.83;;;;;;;13.41;20.96;101147.34;4456776;32;34268;-73
2022/03/01 10:22:58;;;;;;;5.47;2.20;;;;;;;13.70;20.99;101136.25;4456860;32;34610;-73
2022/03/01 10:25:27;;;;;;;6.15;2.50;;;;;;;13.09;20.87;101132.03;4470631;32;33986;-73
2022/03/01 10:27:58;;;;;;;5.85;2.00;;;;;;;13.40;21.05;101124.44;4456808;32;34063;-73
2022/03/01 10:30:32;;;;;;;6.57;2.70;;;;;;;13.57;20.46;101124.22;4470983;32;34032;-73
2022/03/01 10:33:07;;;;;;;6.07;2.85;;;;;;;13.39;20.58;101116.34;4456609;32;32489;-73
2022/03/01 10:35:36;;;;;;;5.80;2.97;;;;;;;12.91;20.27;101115.03;4456904;32;33937;-73
2022/03/01 10:38:05;;;;;;;5.18;2.55;;;;;;;13.38;20.92;101103.62;4470620;32;33892;-73
2022/03/01 10:40:34;;;;;;;6.50;2.40;;;;;;;12.93;20.99;101110.19;4443871;32;33022;-73
2022/03/01 10:43:08;;;;;;;5.75;2.25;;;;;;;13.16;20.26;101111.81;4443783;32;34610;-73
2022/03/01 10:45:54;;;;;;;5.93;2.40;;;;;;;13.24;20.38;101102.59;4456399;32;32760;-73
2022/03/01 10:48:26;;;;;;;5.80;1.70;;;;;;;13.27;20.03;101093.06;4470664;32;33477;-73
2022/03/01 10:51:01;;;;;;;10.93;2.85;;;;;;;13.97;19.89;101087.72;4470645;32;34510;-73
2022/03/01 10:53:30;;;;;;;6.60;4.30;;;;;;;14.38;20.44;101089.78;4470558;32;34018;-73
2022/03/01 10:56:10;;;;;;;5.45;2.22;;;;;;;14.27;19.65;101082.06;4452830;32;112498;-73
2022/03/01 10:58:40;;;;;;;5.68;2.30;;;;;;;14.10;19.30;101070.44;4456769;32;33931;-74
2022/03/01 11:01:09;;;;;;;6.97;2.80;;;;;;;13.78;18.98;101058.00;4443718;32;32960;-73
2022/03/01 11:03:38;;;;;;;8.13;4.93;;;;;;;13.86;19.23;101057.87;4470515;32;34707;-73
2022/03/01 11:06:10;;;;;;;18.67;12.37;;;;;;;14.03;20.08;101052.97;4456524;32;33130;-73
2022/03/01 11:08:40;;;;;;;5.28;2.47;;;;;;;14.13;19.42;101051.56;4456462;32;34558;-73
2022/03/01 11:11:09;;;;;;;5.70;2.50;;;;;;;14.11;18.87;101052.81;4456567;32;35354;-73
2022/03/01 11:13:45;;;;;;;5.22;2.30;;;;;;;14.02;18.52;101043.81;4456556;32;33972;-73
2022/03/01 11:16:47;;;;;;;5.20;2.78;;;;;;;14.38;18.18;101034.53;4443735;32;32749;-73
2022/03/01 11:19:44;;;;;;;5.00;2.17;;;;;;;14.52;18.91;101033.63;4470527;32;34224;-73
2022/03/01 11:22:45;;;;;;;5.57;2.30;;;;;;;14.49;18.22;101032.12;4456674;32;35338;-73
2022/03/01 11:25:20;;;;;;;5.80;2.42;;;;;;;14.81;17.50;101025.09;4456712;32;34079;-73
2022/03/01 11:27:53;;;;;;;4.12;1.83;;;;;;;14.94;18.28;101015.16;4443510;32;32692;-73
2022/03/01 11:30:32;;;;;;;4.40;1.80;;;;;;;14.75;17.80;101016.78;4456406;32;34405;-73
2022/03/01 11:32:59;;;;;;;4.12;1.75;;;;;;;14.41;17.64;101014.81;4456349;32;34204;-73
2022/03/01 11:35:30;;;;;;;5.90;2.10;;;;;;;14.40;17.91;101010.34;4456531;32;34800;-73
2022/03/01 11:38:03;;;;;;;5.70;2.60;;;;;;;14.51;18.63;101009.81;4456266;32;34046;-73
2022/03/01 11:40:38;;;;;;;7.68;4.35;;;;;;;14.44;17.24;100998.72;4457142;32;33738;-73